SUDU

Santa Bernardina International Airport

Durazno, Uruguay
SUDU TAF 162330Z 1700/1724 09010KT 9999 SCT015 BKN070 TX13/1718Z TN05/1710Z TEMPO 1710/1718 5000 RA BKN012 BKN070
Issued Valid From Valid To
Jul-16 @ 23:30 UTC
(56 minutes ago)
Jul-17 @ 00:00 UTC
(26 minutes ago)
Jul-18 @ 00:00 UTC
(in 24 hours)
Jul-17 @ 00:00 to Jul-18 @ 00:00
SUDU TAF 162330Z 1700/1724 09010KT 9999 SCT015 BKN070 TX13/1718Z TN05/1710Z
Wind Visibility Clouds
90° at 10 knots 10,000+ meters
  • Scattered at 1,500' AGL
  • Broken at 7,000' AGL
Temporary Jul-17 @ 10:00 to Jul-17 @ 18:00
TEMPO 1710/1718 5000 RA BKN012 BKN070
Visibility Clouds Conditions
5,005 meters
  • Broken at 1,200' AGL
  • Broken at 7,000' AGL
  • Rain
SUDU TAF 162330Z 1700/1724 09010KT 9999 SCT015 BKN070 TX13/1718Z TN05/1710Z TEMPO 1710/1718 5000 RA BKN012 BKN070
Issued Jul-16 @ 23:30 UTC
(56 minutes ago)
Valid From Jul-17 @ 00:00 UTC
(26 minutes ago)
Valid To Jul-18 @ 00:00 UTC
(in 24 hours)
Jul-17 @ 00:00 - Jul-18 @ 00:00
Wind Visibility
90° at 10 knots 10,000+ meters
Clouds
  • Scattered at 1,500' AGL
  • Broken at 7,000' AGL
Temporary Jul-17 @ 10:00 - Jul-17 @ 18:00
Clouds
  • Broken at 1,200' AGL
  • Broken at 7,000' AGL
Conditions
  • Rain